createdAt,value
2017-10-25T00:01:09.508Z,80.89
2017-10-25T00:03:40.866Z,80.88
2017-10-25T00:06:12.264Z,80.88
2017-10-25T00:08:43.916Z,81.21
2017-10-25T00:11:15.460Z,81.21
2017-10-25T00:13:47.057Z,81.21
2017-10-25T00:19:20.281Z,81.26
2017-10-25T00:21:51.761Z,81.24
2017-10-25T00:24:23.490Z,81.40
2017-10-25T00:26:55.121Z,81.31
2017-10-25T00:29:27.332Z,81.27
2017-10-25T00:31:59.058Z,81.34
2017-10-25T00:34:32.952Z,81.55
2017-10-25T00:37:04.684Z,81.52
2017-10-25T00:39:38.650Z,81.52
2017-10-25T00:42:11.115Z,81.59
2017-10-25T00:44:43.461Z,81.68
2017-10-25T00:47:15.386Z,81.74
2017-10-25T00:49:46.855Z,81.70
2017-10-25T00:52:18.211Z,81.68
2017-10-25T00:54:49.538Z,81.67
2017-10-25T00:57:21.292Z,81.69
2017-10-25T00:59:52.678Z,81.77
2017-10-25T01:02:24.237Z,81.91
2017-10-25T01:04:55.978Z,81.91
2017-10-25T01:07:27.709Z,82.12
2017-10-25T01:09:59.104Z,82.07
2017-10-25T01:15:03.597Z,82.14
2017-10-25T01:17:34.899Z,82.22
2017-10-25T01:20:07.392Z,82.29
2017-10-25T01:22:38.711Z,82.45
2017-10-25T01:25:10.767Z,82.64
2017-10-25T01:27:42.586Z,82.57
2017-10-25T01:30:14.019Z,82.70
2017-10-25T01:32:45.651Z,82.66
2017-10-25T01:35:17.050Z,82.67
2017-10-25T01:37:48.427Z,82.73
2017-10-25T01:40:20.412Z,82.82
2017-10-25T01:42:51.758Z,82.93
2017-10-25T01:45:25.178Z,83.00
2017-10-25T01:47:56.977Z,82.99
2017-10-25T01:50:28.415Z,82.95
2017-10-25T01:52:59.875Z,83.00
2017-10-25T01:55:31.586Z,83.01
2017-10-25T01:58:03.886Z,83.01
2017-10-25T02:00:35.535Z,82.95
2017-10-25T02:03:07.357Z,82.93
2017-10-25T02:05:38.756Z,82.96
2017-10-25T02:08:10.423Z,82.99
2017-10-25T02:10:41.800Z,82.94
2017-10-25T02:13:13.129Z,82.96
2017-10-25T02:15:45.599Z,82.95
2017-10-25T02:18:17.117Z,82.84
2017-10-25T02:20:48.597Z,82.77
2017-10-25T02:23:20.245Z,82.79
2017-10-25T02:25:52.016Z,82.76
2017-10-25T02:28:24.527Z,82.84
2017-10-25T02:30:55.939Z,82.83
2017-10-25T02:33:28.372Z,82.86
2017-10-25T02:36:00.476Z,82.93
2017-10-25T02:38:31.837Z,82.92
2017-10-25T02:41:03.873Z,82.91
2017-10-25T02:43:35.812Z,82.95
2017-10-25T02:46:07.113Z,82.90
2017-10-25T02:48:38.908Z,83.01
2017-10-25T02:51:10.355Z,83.12
2017-10-25T02:53:41.857Z,83.50
2017-10-25T02:56:13.220Z,83.50
2017-10-25T02:58:44.829Z,83.63
2017-10-25T03:01:16.182Z,83.65
2017-10-25T03:03:47.755Z,83.74
2017-10-25T03:06:19.501Z,83.71
2017-10-25T03:08:50.920Z,83.71
2017-10-25T03:11:22.324Z,83.80
2017-10-25T03:13:53.647Z,83.83
2017-10-25T03:16:25.021Z,84.01
2017-10-25T03:18:56.710Z,84.27
2017-10-25T03:21:28.238Z,84.39
2017-10-25T03:23:59.610Z,84.50
2017-10-25T03:26:33.799Z,84.65
2017-10-25T03:29:05.203Z,84.78
2017-10-25T03:31:36.990Z,84.90
2017-10-25T03:34:08.272Z,85.06
2017-10-25T03:36:39.904Z,85.09
2017-10-25T03:39:11.785Z,85.23
2017-10-25T03:41:43.128Z,85.42
2017-10-25T03:44:14.481Z,85.41
2017-10-25T03:46:47.235Z,85.39
2017-10-25T03:49:18.583Z,85.39
2017-10-25T03:51:50.178Z,85.34
2017-10-25T03:54:22.061Z,85.53
2017-10-25T03:56:53.456Z,85.57
2017-10-25T03:59:27.993Z,85.58
2017-10-25T04:01:59.295Z,85.61
2017-10-25T04:04:32.602Z,85.61
2017-10-25T04:07:05.307Z,85.54
2017-10-25T04:09:36.794Z,85.53
2017-10-25T04:12:09.594Z,85.70
2017-10-25T04:14:41.778Z,85.63
2017-10-25T04:17:13.759Z,85.59
2017-10-25T04:19:45.900Z,85.61
2017-10-25T04:22:17.441Z,85.63
2017-10-25T04:24:49.203Z,85.66
2017-10-25T04:27:22.982Z,85.69
2017-10-25T04:29:54.615Z,85.65
2017-10-25T04:32:28.704Z,85.77
2017-10-25T04:35:00.051Z,85.90
2017-10-25T04:37:31.851Z,85.93
2017-10-25T04:40:08.162Z,86.01
2017-10-25T04:42:40.141Z,86.10
2017-10-25T04:45:12.451Z,86.04
2017-10-25T04:47:44.658Z,86.08
2017-10-25T04:50:16.085Z,86.03
2017-10-25T04:52:47.379Z,85.93
2017-10-25T04:55:19.703Z,85.99
2017-10-25T04:57:51.287Z,85.92
2017-10-25T05:00:27.474Z,85.90
2017-10-25T05:02:59.026Z,85.94
2017-10-25T05:05:31.863Z,85.84
2017-10-25T05:11:14.691Z,85.77
2017-10-25T05:13:46.040Z,85.90
2017-10-25T05:16:17.763Z,85.91
2017-10-25T05:18:49.076Z,85.85
2017-10-25T05:21:20.562Z,85.79
2017-10-25T05:23:52.261Z,85.76
2017-10-25T05:26:25.240Z,85.92
2017-10-25T05:28:56.592Z,85.91
2017-10-25T05:31:29.637Z,85.91
2017-10-25T05:34:03.149Z,85.87
2017-10-25T05:36:45.677Z,85.94
2017-10-25T05:39:17.086Z,85.94
2017-10-25T05:41:48.831Z,85.92
2017-10-25T05:44:20.478Z,85.96
2017-10-25T05:46:52.018Z,85.95
2017-10-25T05:49:25.543Z,85.96
2017-10-25T05:51:56.952Z,85.94
2017-10-25T05:54:29.438Z,85.97
2017-10-25T05:57:00.879Z,85.97
2017-10-25T05:59:32.251Z,86.04
2017-10-25T06:02:05.050Z,85.98
2017-10-25T06:04:36.722Z,85.89
2017-10-25T06:07:08.372Z,85.80
2017-10-25T06:09:39.793Z,85.74
2017-10-25T06:12:11.330Z,85.68
2017-10-25T06:14:43.062Z,85.59
2017-10-25T06:17:14.640Z,85.55
2017-10-25T06:19:46.129Z,85.50
2017-10-25T06:22:18.592Z,85.49
2017-10-25T06:24:49.951Z,85.46
2017-10-25T06:27:23.640Z,85.40
2017-10-25T06:29:54.967Z,85.24
2017-10-25T06:32:28.003Z,85.16
2017-10-25T06:34:59.681Z,85.05
2017-10-25T06:40:04.451Z,84.75
2017-10-25T06:42:36.106Z,84.58
2017-10-25T06:45:08.365Z,84.37
2017-10-25T06:47:40.015Z,84.24
2017-10-25T06:50:11.439Z,84.01
2017-10-25T06:52:43.295Z,83.75
2017-10-25T06:55:14.736Z,83.58
2017-10-25T06:57:47.497Z,83.48
2017-10-25T07:00:19.752Z,83.19
2017-10-25T07:02:51.251Z,82.94
2017-10-25T07:05:24.885Z,82.75
2017-10-25T07:07:56.615Z,82.57
2017-10-25T07:10:28.076Z,82.39
2017-10-25T07:13:00.275Z,82.34
2017-10-25T07:15:32.327Z,82.20
2017-10-25T07:18:05.082Z,82.06
2017-10-25T07:20:37.704Z,81.85
2017-10-25T07:23:09.270Z,81.48
2017-10-25T07:25:40.944Z,81.42
2017-10-25T07:28:13.285Z,81.17
2017-10-25T07:30:44.909Z,80.86
2017-10-25T07:33:16.685Z,80.78
2017-10-25T07:35:48.501Z,80.79
2017-10-25T07:38:20.335Z,80.70
2017-10-25T07:40:51.845Z,80.38
2017-10-25T07:43:25.504Z,80.25
2017-10-25T07:45:57.184Z,80.25
2017-10-25T07:48:29.070Z,80.09
2017-10-25T07:51:00.834Z,79.64
2017-10-25T07:53:32.545Z,79.17
2017-10-25T07:56:10.444Z,78.59
2017-10-25T07:58:42.162Z,78.51
2017-10-25T08:01:13.541Z,78.56
2017-10-25T08:03:45.002Z,78.26
2017-10-25T08:06:17.196Z,77.82
2017-10-25T08:08:48.671Z,77.35
2017-10-25T08:11:21.283Z,77.06
2017-10-25T08:13:53.076Z,76.95
2017-10-25T08:16:24.615Z,76.86
2017-10-25T08:18:57.367Z,76.64
2017-10-25T08:21:29.364Z,76.60
2017-10-25T08:24:03.973Z,76.74
2017-10-25T08:26:35.616Z,76.60
2017-10-25T08:29:07.134Z,76.63
2017-10-25T08:31:38.999Z,76.50
2017-10-25T08:34:10.374Z,76.48
2017-10-25T08:36:42.199Z,76.49
2017-10-25T08:39:13.724Z,76.58
2017-10-25T08:41:45.294Z,76.43
2017-10-25T08:44:16.750Z,76.35
2017-10-25T08:46:48.147Z,76.23
2017-10-25T08:49:19.502Z,76.19
2017-10-25T08:51:51.201Z,76.25
2017-10-25T08:54:24.006Z,76.13
2017-10-25T08:56:55.806Z,75.92
2017-10-25T08:59:27.336Z,75.88
2017-10-25T09:01:58.880Z,76.05
2017-10-25T09:04:30.796Z,76.05
2017-10-25T09:07:02.896Z,76.04
2017-10-25T09:09:34.993Z,75.97
2017-10-25T09:12:08.289Z,75.62
2017-10-25T09:14:39.833Z,74.93
2017-10-25T09:17:11.510Z,74.38
2017-10-25T09:19:42.926Z,74.31
2017-10-25T09:22:14.338Z,73.90
2017-10-25T09:24:46.146Z,73.75
2017-10-25T09:27:17.564Z,73.04
2017-10-25T09:29:49.111Z,72.20
2017-10-25T09:32:23.577Z,71.78
2017-10-25T09:37:55.002Z,69.20
2017-10-25T09:40:26.481Z,65.68
2017-10-25T09:42:58.244Z,59.40
2017-10-25T09:45:29.698Z,59.82
2017-10-25T09:48:01.143Z,60.91
2017-10-25T09:50:33.187Z,60.91
2017-10-25T09:53:05.200Z,61.28
2017-10-25T09:55:37.473Z,55.51
2017-10-25T09:58:09.488Z,53.25
2017-10-25T10:00:41.167Z,53.18
2017-10-25T10:03:12.547Z,55.51
2017-10-25T10:05:44.064Z,57.04
2017-10-25T10:08:16.734Z,58.17
2017-10-25T10:10:48.151Z,60.59
2017-10-25T10:13:20.657Z,61.98
2017-10-25T10:15:52.124Z,62.39
2017-10-25T10:19:26.015Z,62.77
2017-10-25T10:21:57.523Z,63.24
2017-10-25T10:24:29.350Z,63.31
2017-10-25T10:27:01.235Z,63.54
2017-10-25T10:29:32.691Z,63.55
2017-10-25T10:32:04.855Z,63.65
2017-10-25T10:34:36.580Z,64.00
2017-10-25T10:37:08.191Z,64.21
2017-10-25T10:39:39.875Z,63.87
2017-10-25T10:42:11.311Z,64.01
2017-10-25T10:44:42.961Z,63.79
2017-10-25T10:47:15.150Z,63.32
2017-10-25T10:49:47.265Z,62.95
2017-10-25T10:52:20.258Z,63.01
2017-10-25T10:54:51.651Z,63.01
2017-10-25T10:57:23.058Z,62.21
2017-10-25T10:59:54.737Z,61.08
2017-10-25T11:02:26.186Z,59.45
2017-10-25T11:04:57.585Z,57.62
2017-10-25T11:07:29.276Z,56.52
2017-10-25T11:10:01.068Z,55.42
2017-10-25T11:12:33.419Z,56.42
2017-10-25T11:15:05.458Z,58.00
2017-10-25T11:17:36.864Z,59.23
2017-10-25T11:20:39.228Z,59.64
2017-10-25T11:23:10.715Z,56.98
2017-10-25T11:25:42.998Z,50.83
2017-10-25T11:28:14.990Z,48.77
2017-10-25T11:30:46.597Z,49.89
2017-10-25T11:33:18.567Z,51.19
2017-10-25T11:35:50.096Z,52.97
2017-10-25T11:38:22.880Z,54.82
2017-10-25T11:40:54.568Z,56.86
2017-10-25T11:43:26.103Z,58.35
2017-10-25T11:45:57.594Z,59.01
2017-10-25T11:48:29.975Z,59.34
2017-10-25T11:51:01.946Z,59.70
2017-10-25T11:53:33.341Z,59.25
2017-10-25T11:56:06.672Z,59.48
2017-10-25T11:58:38.066Z,59.49
2017-10-25T12:01:10.391Z,60.01
2017-10-25T12:03:43.006Z,59.73
2017-10-25T12:06:14.457Z,60.01
2017-10-25T12:08:45.867Z,60.57
2017-10-25T12:11:18.409Z,61.18
2017-10-25T12:13:49.967Z,62.27
2017-10-25T12:16:21.590Z,63.05
2017-10-25T12:18:53.004Z,59.40
2017-10-25T12:21:24.374Z,53.10
2017-10-25T12:23:56.866Z,54.27
2017-10-25T12:26:29.888Z,55.65
2017-10-25T12:29:01.887Z,56.63
2017-10-25T12:31:37.323Z,57.91
2017-10-25T12:34:10.454Z,58.52
2017-10-25T12:36:46.717Z,58.76
2017-10-25T12:39:20.007Z,56.33
2017-10-25T12:41:52.477Z,47.58
2017-10-25T12:44:25.680Z,45.88
2017-10-25T12:46:57.156Z,46.59
2017-10-25T12:49:44.243Z,42.48
2017-10-25T12:52:17.044Z,41.23
2017-10-25T12:54:50.859Z,44.30
2017-10-25T12:57:30.514Z,47.21
2017-10-25T13:00:03.477Z,46.06
2017-10-25T13:02:35.361Z,42.77
2017-10-25T13:05:07.497Z,42.94
2017-10-25T13:07:39.617Z,40.05
2017-10-25T13:11:19.307Z,32.72
2017-10-25T13:14:08.624Z,27.55
2017-10-25T13:17:02.901Z,24.32
2017-10-25T13:22:21.856Z,23.86
2017-10-25T13:24:56.415Z,22.77
2017-10-25T13:27:27.899Z,24.99
2017-10-25T13:29:59.806Z,23.59
2017-10-25T13:32:33.439Z,21.94
2017-10-25T13:35:05.591Z,21.11
2017-10-25T13:37:38.018Z,21.72
2017-10-25T13:40:09.498Z,21.90
2017-10-25T13:42:40.892Z,21.43
2017-10-25T13:45:17.244Z,22.03
2017-10-25T13:47:49.925Z,24.13
2017-10-25T13:50:21.369Z,28.48
2017-10-25T13:52:55.266Z,32.08
2017-10-25T13:55:30.400Z,34.85
2017-10-25T13:58:03.225Z,36.99
2017-10-25T14:00:34.797Z,38.63
2017-10-25T14:03:08.220Z,39.79
2017-10-25T14:05:39.995Z,42.40
2017-10-25T14:08:12.135Z,43.69
2017-10-25T14:10:43.497Z,45.08
2017-10-25T14:13:15.308Z,46.67
2017-10-25T14:15:47.110Z,46.48
2017-10-25T14:18:19.490Z,46.35
2017-10-25T14:20:50.972Z,45.91
2017-10-25T14:23:22.634Z,45.78
2017-10-25T14:25:54.128Z,45.52
2017-10-25T14:28:56.422Z,46.02
2017-10-25T14:31:28.300Z,46.69
2017-10-25T14:34:00.235Z,47.35
2017-10-25T14:36:32.328Z,47.72
2017-10-25T14:39:04.062Z,48.24
2017-10-25T14:41:37.248Z,48.46
2017-10-25T14:44:10.294Z,48.94
2017-10-25T14:46:41.770Z,48.98
2017-10-25T14:49:13.542Z,48.96
2017-10-25T14:51:45.672Z,49.19
2017-10-25T14:54:18.208Z,49.36
2017-10-25T14:56:49.999Z,49.67
2017-10-25T14:59:25.362Z,49.82
2017-10-25T15:01:57.297Z,49.72
2017-10-25T15:04:29.092Z,49.89
2017-10-25T15:07:02.404Z,50.40
2017-10-25T15:09:34.850Z,50.66
2017-10-25T15:12:06.730Z,50.86
2017-10-25T15:14:38.278Z,51.18
2017-10-25T15:17:12.060Z,51.58
2017-10-25T15:19:44.032Z,52.01
2017-10-25T15:22:18.129Z,52.32
2017-10-25T15:24:49.694Z,52.62
2017-10-25T15:27:27.197Z,52.76
2017-10-25T15:29:58.836Z,53.04
2017-10-25T15:32:34.183Z,53.45
2017-10-25T15:35:05.766Z,53.73
2017-10-25T15:37:38.919Z,54.17
2017-10-25T15:40:12.641Z,54.59
2017-10-25T15:42:44.630Z,54.94
2017-10-25T15:45:16.061Z,55.42
2017-10-25T15:47:47.514Z,56.17
2017-10-25T15:50:21.826Z,56.70
2017-10-25T15:52:53.814Z,57.22
2017-10-25T15:55:34.171Z,57.91
2017-10-25T15:58:12.323Z,58.73
2017-10-25T16:00:43.767Z,59.22
2017-10-25T16:03:16.649Z,59.87
2017-10-25T16:05:48.661Z,60.70
2017-10-25T16:08:21.164Z,61.40
2017-10-25T16:10:53.303Z,61.99
2017-10-25T16:13:26.896Z,62.54
2017-10-25T16:15:58.808Z,63.28
2017-10-25T16:18:31.353Z,63.79
2017-10-25T16:21:05.708Z,64.30
2017-10-25T16:23:37.900Z,64.76
2017-10-25T16:26:09.670Z,64.85
2017-10-25T16:28:42.605Z,65.40
2017-10-25T16:31:14.051Z,65.62
2017-10-25T16:33:45.596Z,66.03
2017-10-25T16:36:18.532Z,66.03
2017-10-25T16:38:50.011Z,66.34
2017-10-25T16:41:23.597Z,66.48
2017-10-25T16:43:56.416Z,66.75
2017-10-25T16:46:29.004Z,66.96
2017-10-25T16:49:00.496Z,67.31
2017-10-25T16:51:32.648Z,67.39
2017-10-25T16:54:10.745Z,67.74
2017-10-25T16:56:42.272Z,68.00
2017-10-25T16:59:22.426Z,68.26
2017-10-25T17:01:55.774Z,68.61
2017-10-25T17:04:30.968Z,68.75
2017-10-25T17:07:08.440Z,68.98
2017-10-25T17:09:40.093Z,69.22
2017-10-25T17:12:12.336Z,69.25
2017-10-25T17:14:46.318Z,69.40
2017-10-25T17:17:18.937Z,69.75
2017-10-25T17:19:50.353Z,69.90
2017-10-25T17:22:23.924Z,69.89
2017-10-25T17:24:55.384Z,70.07
2017-10-25T17:27:27.538Z,70.11
2017-10-25T17:29:59.299Z,70.07
2017-10-25T17:32:31.736Z,70.25
2017-10-25T17:35:04.869Z,70.36
2017-10-25T17:37:36.610Z,70.59
2017-10-25T17:40:10.857Z,70.68
2017-10-25T17:42:42.278Z,70.86
2017-10-25T17:45:13.977Z,71.03
2017-10-25T17:47:45.313Z,71.04
2017-10-25T17:50:16.853Z,71.42
2017-10-25T17:52:48.375Z,71.26
2017-10-25T17:55:22.112Z,71.26
2017-10-25T17:57:53.619Z,71.42
2017-10-25T18:00:26.836Z,71.45
2017-10-25T18:02:59.339Z,71.58
2017-10-25T18:05:30.955Z,71.75
2017-10-25T18:08:04.026Z,71.96
2017-10-25T18:10:37.403Z,72.27
2017-10-25T18:13:10.207Z,72.26
2017-10-25T18:15:42.126Z,72.28
2017-10-25T18:18:15.979Z,72.46
2017-10-25T18:20:50.404Z,72.75
2017-10-25T18:23:23.609Z,72.97
2017-10-25T18:25:55.363Z,73.09
2017-10-25T18:28:27.418Z,73.14
2017-10-25T18:30:59.144Z,73.17
2017-10-25T18:33:31.086Z,73.32
2017-10-25T18:36:04.255Z,73.31
2017-10-25T18:38:36.453Z,73.44
2017-10-25T18:41:08.194Z,73.69
2017-10-25T18:43:39.627Z,73.96
2017-10-25T18:46:21.663Z,74.16
2017-10-25T18:48:56.526Z,74.20
2017-10-25T18:51:34.964Z,74.32
2017-10-25T18:54:06.525Z,74.60
2017-10-25T18:56:40.017Z,74.55
2017-10-25T18:59:12.753Z,74.62
2017-10-25T19:01:45.927Z,75.11
2017-10-25T19:04:18.624Z,75.04
2017-10-25T19:06:50.600Z,75.07
2017-10-25T19:09:22.746Z,75.25
2017-10-25T19:11:54.160Z,75.39
2017-10-25T19:14:26.381Z,75.54
2017-10-25T19:16:58.523Z,75.78
2017-10-25T19:19:32.306Z,76.05
2017-10-25T19:22:05.326Z,76.14
2017-10-25T19:24:37.575Z,76.36
2017-10-25T19:27:10.271Z,76.46
2017-10-25T19:29:43.086Z,76.58
2017-10-25T19:32:14.607Z,76.63
2017-10-25T19:34:46.110Z,76.68
2017-10-25T19:37:18.832Z,76.98
2017-10-25T19:42:21.849Z,77.24
2017-10-25T19:44:54.545Z,77.28
2017-10-25T19:47:28.848Z,77.33
2017-10-25T19:50:02.648Z,77.45
2017-10-25T19:52:34.127Z,77.51
2017-10-25T19:55:05.533Z,77.67
2017-10-25T19:57:36.971Z,78.00
2017-10-25T20:00:08.632Z,77.91
2017-10-25T20:02:39.975Z,78.00
2017-10-25T20:05:12.109Z,78.04
2017-10-25T20:07:43.921Z,78.07
2017-10-25T20:10:15.265Z,78.08
2017-10-25T20:12:46.576Z,78.42
2017-10-25T20:15:18.207Z,78.33
2017-10-25T20:17:49.563Z,78.39
2017-10-25T20:20:21.760Z,78.41
2017-10-25T20:22:53.759Z,78.40
2017-10-25T20:25:26.203Z,78.50
2017-10-25T20:27:58.552Z,78.65
2017-10-25T20:30:32.086Z,78.79
2017-10-25T20:33:09.476Z,78.92
2017-10-25T20:35:41.212Z,78.90
2017-10-25T20:38:12.533Z,78.82
2017-10-25T20:40:43.862Z,78.84
2017-10-25T20:43:16.537Z,78.88
2017-10-25T20:45:48.537Z,78.87
2017-10-25T20:48:21.176Z,78.95
2017-10-25T20:50:53.063Z,78.91
2017-10-25T20:53:27.887Z,78.94
2017-10-25T20:56:04.411Z,78.92
2017-10-25T20:58:37.021Z,78.98
2017-10-25T21:01:08.532Z,79.01
2017-10-25T21:03:40.475Z,79.12
2017-10-25T21:06:11.976Z,79.27
2017-10-25T21:08:44.503Z,79.50
2017-10-25T21:11:16.064Z,79.42
2017-10-25T21:13:48.523Z,79.47
2017-10-25T21:16:20.295Z,79.62
2017-10-25T21:18:52.759Z,79.58
2017-10-25T21:21:25.506Z,79.72
2017-10-25T21:23:57.620Z,79.91
2017-10-25T21:26:31.263Z,80.46
2017-10-25T21:29:03.758Z,80.88
2017-10-25T21:31:36.221Z,81.08
2017-10-25T21:34:08.038Z,81.13
2017-10-25T21:36:39.414Z,81.18
2017-10-25T21:39:11.084Z,81.24
2017-10-25T21:41:42.481Z,81.42
2017-10-25T21:44:13.896Z,81.37
2017-10-25T21:46:45.649Z,81.39
2017-10-25T21:49:18.034Z,81.46
2017-10-25T21:51:49.719Z,81.51
2017-10-25T21:54:22.567Z,81.54
2017-10-25T21:56:54.025Z,81.59
2017-10-25T21:59:26.304Z,81.62
2017-10-25T22:01:57.714Z,81.64
2017-10-25T22:04:30.856Z,81.68
2017-10-25T22:07:02.457Z,81.68
2017-10-25T22:09:34.038Z,81.82
2017-10-25T22:12:06.924Z,81.83
2017-10-25T22:14:38.642Z,81.90
2017-10-25T22:17:11.573Z,81.96
2017-10-25T22:19:43.055Z,82.01
2017-10-25T22:22:14.383Z,81.95
2017-10-25T22:24:45.989Z,81.97
2017-10-25T22:27:17.873Z,82.12
2017-10-25T22:29:49.221Z,82.12
2017-10-25T22:32:20.869Z,82.29
2017-10-25T22:34:52.282Z,82.30
2017-10-25T22:37:24.828Z,82.41
2017-10-25T22:39:56.201Z,82.66
2017-10-25T22:42:28.844Z,82.51
2017-10-25T22:45:00.518Z,82.51
2017-10-25T22:47:31.825Z,82.55
2017-10-25T22:50:04.569Z,82.58
2017-10-25T22:55:41.761Z,82.70
2017-10-25T22:58:16.132Z,82.92
2017-10-25T23:00:48.127Z,83.31
2017-10-25T23:03:20.373Z,83.43
2017-10-25T23:05:51.950Z,83.56
2017-10-25T23:08:24.086Z,83.55
2017-10-25T23:10:56.343Z,83.61
2017-10-25T23:13:27.965Z,83.63
2017-10-25T23:15:59.683Z,83.75
2017-10-25T23:18:34.963Z,83.80
2017-10-25T23:21:07.093Z,83.81
2017-10-25T23:23:40.430Z,83.85
2017-10-25T23:26:13.204Z,83.93
2017-10-25T23:28:44.955Z,84.07
2017-10-25T23:31:18.803Z,84.44
2017-10-25T23:33:50.850Z,84.44
2017-10-25T23:36:22.522Z,84.63
2017-10-25T23:38:53.878Z,84.81
2017-10-25T23:41:25.529Z,84.81
2017-10-25T23:43:57.251Z,84.81
2017-10-25T23:46:29.179Z,85.02
2017-10-25T23:49:03.297Z,85.15
2017-10-25T23:51:37.221Z,85.20
2017-10-25T23:54:15.004Z,85.21
2017-10-25T23:56:46.630Z,85.26
2017-10-25T23:59:19.373Z,85.33
